Time;durP1;ratioP1;P1;durP2;ratioP2;P2;SDS_P1;SDS_P2;PMS_P1;PMS_P2;Temp;Humidity;BMP_temperature;BMP_pressure;BME280_temperature;BME280_humidity;BME280_pressure;Samples;Min_cycle;Max_cycle;Signal;HPM_P1;HPM_P2
2023/06/30 00:00:35;;;;;;;24.73;12.95;;;;;;;15.59;100.00;97903.38;5083514;28;20044;-44
2023/06/30 00:03:03;;;;;;;21.27;13.40;;;;;;;15.61;100.00;97911.91;5086574;28;20040;-45
2023/06/30 00:05:30;;;;;;;17.27;12.80;;;;;;;15.62;100.00;97915.38;5054923;28;20054;-42
2023/06/30 00:07:58;;;;;;;21.20;13.27;;;;;;;15.61;100.00;97916.31;5089029;28;20048;-44
2023/06/30 00:10:25;;;;;;;19.25;12.65;;;;;;;15.59;100.00;97903.38;5089201;28;20578;-44
2023/06/30 00:12:51;;;;;;;21.40;13.18;;;;;;;15.57;100.00;97904.44;5088670;28;20054;-42
2023/06/30 00:15:17;;;;;;;23.42;13.20;;;;;;;15.54;100.00;97902.09;5089578;28;20042;-43
2023/06/30 00:17:43;;;;;;;17.35;13.23;;;;;;;15.56;100.00;97903.63;5051024;28;20079;-43
2023/06/30 00:20:09;;;;;;;23.73;13.40;;;;;;;15.55;100.00;97904.56;5070124;28;20079;-43
2023/06/30 00:22:36;;;;;;;19.35;13.10;;;;;;;15.57;100.00;97904.44;5068952;28;20469;-42
2023/06/30 00:25:02;;;;;;;18.52;12.02;;;;;;;15.56;100.00;97908.03;5089220;28;20044;-47
2023/06/30 00:27:29;;;;;;;21.33;12.73;;;;;;;15.55;100.00;97908.97;5090445;28;20353;-46
2023/06/30 00:29:55;;;;;;;19.35;12.80;;;;;;;15.42;100.00;97895.22;5090408;28;20044;-48
2023/06/30 00:32:21;;;;;;;20.48;13.15;;;;;;;15.53;100.00;97898.66;5089998;28;20093;-46
2023/06/30 00:34:47;;;;;;;16.48;12.68;;;;;;;15.54;100.00;97908.16;5081171;28;20059;-44
2023/06/30 00:37:14;;;;;;;19.23;12.80;;;;;;;15.53;100.00;97896.03;5073430;28;20052;-43
2023/06/30 00:39:40;;;;;;;17.98;12.27;;;;;;;15.52;100.00;97904.00;5072863;28;20542;-46
2023/06/30 00:42:07;;;;;;;18.67;13.02;;;;;;;15.50;100.00;97898.00;5091154;28;20036;-42
2023/06/30 00:44:33;;;;;;;20.52;12.65;;;;;;;15.49;100.00;97899.81;5091767;28;20604;-48
2023/06/30 00:47:00;;;;;;;21.17;12.85;;;;;;;15.44;100.00;97901.97;5052807;28;20135;-43
2023/06/30 00:49:27;;;;;;;21.63;13.63;;;;;;;15.39;100.00;97893.66;5081937;28;20040;-48
2023/06/30 00:51:53;;;;;;;20.77;13.32;;;;;;;15.34;100.00;97900.22;5075958;28;20044;-44
2023/06/30 00:54:23;;;;;;;17.35;12.23;;;;;;;15.31;100.00;97895.25;5091391;28;20546;-44
2023/06/30 00:56:49;;;;;;;20.55;13.40;;;;;;;15.28;100.00;97889.31;5052625;28;20040;-43
2023/06/30 00:59:15;;;;;;;17.40;12.63;;;;;;;15.12;100.00;97872.38;5078512;28;20530;-46
2023/06/30 01:01:55;;;;;;;18.58;12.57;;;;;;;15.23;100.00;97888.03;5089669;28;20039;-43
2023/06/30 01:04:36;;;;;;;19.60;13.93;;;;;;;15.21;100.00;97888.16;5074889;28;20094;-43
2023/06/30 01:07:07;;;;;;;18.27;13.18;;;;;;;15.16;100.00;97872.00;5087957;28;20047;-43
2023/06/30 01:09:38;;;;;;;20.25;12.55;;;;;;;15.20;100.00;97886.50;5090884;28;20788;-44
2023/06/30 01:12:07;;;;;;;18.85;12.43;;;;;;;15.20;100.00;97883.88;5082425;28;20046;-46
2023/06/30 01:14:33;;;;;;;23.85;12.93;;;;;;;15.24;100.00;97887.06;5078907;28;20131;-43
2023/06/30 01:17:00;;;;;;;19.88;12.40;;;;;;;15.25;100.00;97888.75;5069379;28;20041;-45
2023/06/30 01:19:39;;;;;;;19.58;13.68;;;;;;;15.29;100.00;97890.13;5072437;28;20055;-42
2023/06/30 01:22:14;;;;;;;18.75;13.43;;;;;;;15.32;100.00;97887.28;5061554;28;20555;-41
2023/06/30 01:24:41;;;;;;;19.27;12.70;;;;;;;15.36;100.00;97885.25;5072032;28;20044;-45
2023/06/30 01:27:08;;;;;;;21.98;12.93;;;;;;;15.33;100.00;97875.88;5087850;28;20117;-43
2023/06/30 01:29:33;;;;;;;19.30;12.98;;;;;;;15.40;100.00;97881.41;5072870;28;20086;-45
2023/06/30 01:32:00;;;;;;;21.20;13.27;;;;;;;15.43;100.00;97873.31;5071739;28;20127;-43
2023/06/30 01:34:26;;;;;;;20.50;13.35;;;;;;;15.42;100.00;97882.94;5069069;28;20113;-44
2023/06/30 01:36:52;;;;;;;19.52;13.20;;;;;;;15.48;100.00;97866.75;5072026;28;20094;-45
2023/06/30 01:39:18;;;;;;;19.13;12.90;;;;;;;15.49;100.00;97870.19;5089598;28;20535;-44
2023/06/30 01:41:44;;;;;;;19.75;12.43;;;;;;;15.51;100.00;97863.00;5087046;28;20043;-44
2023/06/30 01:44:10;;;;;;;19.35;12.73;;;;;;;15.52;100.00;97867.34;5089257;28;20051;-44
2023/06/30 01:46:38;;;;;;;19.25;13.85;;;;;;;15.54;100.00;97862.81;5088988;28;20068;-46
2023/06/30 01:49:04;;;;;;;19.00;12.70;;;;;;;15.57;100.00;97858.13;5090072;28;20071;-49
2023/06/30 01:51:30;;;;;;;26.98;12.77;;;;;;;15.62;100.00;97863.00;5072095;28;20177;-44
2023/06/30 01:53:56;;;;;;;20.42;13.05;;;;;;;15.48;100.00;97843.16;5088851;28;20046;-45
2023/06/30 01:56:22;;;;;;;21.00;13.35;;;;;;;15.59;100.00;97861.47;5071043;28;20040;-45
2023/06/30 01:58:49;;;;;;;24.60;14.50;;;;;;;15.63;100.00;97867.28;5054755;28;20392;-45
2023/06/30 02:01:15;;;;;;;21.67;13.30;;;;;;;15.64;100.00;97867.16;5069410;28;20043;-45
2023/06/30 02:03:41;;;;;;;24.30;14.70;;;;;;;15.67;100.00;97866.03;5088471;28;20036;-44
2023/06/30 02:06:07;;;;;;;29.25;16.55;;;;;;;15.67;100.00;97868.66;5089906;28;20515;-44
2023/06/30 02:08:33;;;;;;;27.08;16.00;;;;;;;15.71;100.00;97875.31;5089440;28;20036;-45
2023/06/30 02:10:59;;;;;;;30.23;16.95;;;;;;;15.71;100.00;97870.06;5085121;28;20070;-43
2023/06/30 02:13:26;;;;;;;24.92;15.88;;;;;;;15.73;100.00;97862.91;5075955;28;20610;-44
2023/06/30 02:15:52;;;;;;;27.20;17.25;;;;;;;15.78;100.00;97868.59;5080290;28;20257;-44
2023/06/30 02:18:22;;;;;;;30.13;17.35;;;;;;;15.80;100.00;97865.88;5067748;28;20143;-46
2023/06/30 02:20:47;;;;;;;34.75;19.50;;;;;;;15.81;100.00;97864.88;5069161;28;20040;-44
2023/06/30 02:23:13;;;;;;;31.20;18.80;;;;;;;15.82;100.00;97859.50;5086270;28;20059;-42
2023/06/30 02:25:39;;;;;;;31.95;18.00;;;;;;;15.72;100.00;97837.69;5070643;28;20036;-44
2023/06/30 02:28:05;;;;;;;30.83;19.05;;;;;;;15.79;100.00;97840.63;5070714;28;20086;-44
2023/06/30 02:30:31;;;;;;;36.53;21.30;;;;;;;15.96;100.00;97864.41;5087388;28;20032;-45
2023/06/30 02:32:57;;;;;;;34.55;21.05;;;;;;;15.97;100.00;97860.84;5075433;28;20511;-41
2023/06/30 02:35:24;;;;;;;32.05;18.80;;;;;;;16.03;100.00;97867.34;5089023;28;20044;-45
2023/06/30 02:37:53;;;;;;;34.97;21.05;;;;;;;16.02;100.00;97858.66;5087748;28;20171;-44
2023/06/30 02:40:22;;;;;;;;;;;;;;;16.06;100.00;97869.72;5068649;28;20500;-43
2023/06/30 02:42:47;;;;;;;31.65;18.05;;;;;;;16.02;100.00;97871.75;5064383;28;19916;-44
2023/06/30 02:45:14;;;;;;;28.48;18.90;;;;;;;16.03;100.00;97873.41;5051435;28;20431;-45
2023/06/30 02:47:40;;;;;;;28.52;17.92;;;;;;;16.01;100.00;97861.41;5069587;28;20040;-44
2023/06/30 02:50:07;;;;;;;27.83;17.98;;;;;;;16.01;100.00;97866.66;5078023;28;20086;-43
2023/06/30 02:52:36;;;;;;;;;;;;;;;15.99;100.00;97864.16;5069278;28;20149;-43
2023/06/30 02:55:01;;;;;;;24.73;15.88;;;;;;;15.95;100.00;97861.94;5068977;28;20494;-45
2023/06/30 02:57:30;;;;;;;26.60;16.43;;;;;;;15.72;100.00;97815.88;5069404;28;20105;-44
2023/06/30 02:59:56;;;;;;;25.27;16.45;;;;;;;16.04;100.00;97853.28;5066287;28;20277;-44
2023/06/30 03:02:22;;;;;;;27.13;18.25;;;;;;;16.14;100.00;97859.38;5076320;28;20047;-43
2023/06/30 03:04:48;;;;;;;24.92;16.15;;;;;;;16.22;100.00;97850.88;5067468;28;20044;-45
2023/06/30 03:07:16;;;;;;;21.60;15.02;;;;;;;16.37;100.00;97854.78;5044725;28;20605;-46
2023/06/30 03:09:43;;;;;;;23.65;17.35;;;;;;;16.37;100.00;97832.03;5067135;28;20044;-43
2023/06/30 03:12:10;;;;;;;22.85;16.77;;;;;;;16.65;100.00;97858.47;5055128;28;20036;-44
2023/06/30 03:14:36;;;;;;;25.73;17.42;;;;;;;16.53;100.00;97829.72;5087734;28;20403;-44
2023/06/30 03:17:02;;;;;;;29.70;17.58;;;;;;;16.67;100.00;97852.13;5087686;28;20051;-44
2023/06/30 03:19:29;;;;;;;23.95;16.40;;;;;;;16.62;100.00;97833.34;5087435;28;20047;-43
2023/06/30 03:21:55;;;;;;;29.73;16.80;;;;;;;16.83;100.00;97846.34;5080334;28;20053;-44
2023/06/30 03:24:21;;;;;;;28.60;18.20;;;;;;;16.92;100.00;97841.09;5033843;28;20051;-45
2023/06/30 03:26:47;;;;;;;25.30;17.85;;;;;;;16.87;100.00;97829.38;5068400;28;20040;-43
2023/06/30 03:29:19;;;;;;;24.58;17.67;;;;;;;16.98;100.00;97838.91;5030650;28;20052;-47
2023/06/30 03:31:45;;;;;;;27.20;17.77;;;;;;;16.98;100.00;97844.97;5030375;28;20416;-44
2023/06/30 03:34:11;;;;;;;30.80;19.55;;;;;;;16.91;100.00;97820.25;5049331;28;20508;-43
2023/06/30 03:36:37;;;;;;;30.02;17.67;;;;;;;17.11;100.00;97845.56;5050548;28;20037;-45
2023/06/30 03:39:05;;;;;;;28.52;18.48;;;;;;;17.09;100.00;97847.47;5070927;28;20050;-45
2023/06/30 03:41:31;;;;;;;26.27;16.40;;;;;;;17.05;100.00;97838.22;5053973;28;20040;-44
2023/06/30 03:43:57;;;;;;;33.00;17.38;;;;;;;16.90;100.00;97818.59;5070843;28;20032;-45
2023/06/30 03:46:23;;;;;;;23.60;17.48;;;;;;;16.91;100.00;97821.06;5051164;28;20178;-43
2023/06/30 03:48:50;;;;;;;25.10;17.08;;;;;;;17.04;100.00;97839.19;5018522;28;20037;-47
2023/06/30 03:51:16;;;;;;;38.15;19.42;;;;;;;16.91;100.00;97820.25;5068618;28;20050;-44
2023/06/30 03:53:48;;;;;;;27.65;18.35;;;;;;;17.01;100.00;97841.28;5017181;28;20064;-45
2023/06/30 03:56:14;;;;;;;30.85;19.25;;;;;;;17.00;100.00;97843.06;5017844;28;20091;-45
2023/06/30 03:58:40;;;;;;;29.63;19.38;;;;;;;16.89;100.00;97820.41;5069959;28;20078;-43
2023/06/30 04:01:06;;;;;;;31.00;19.27;;;;;;;17.09;100.00;97834.34;5052598;28;20040;-44
2023/06/30 04:03:33;;;;;;;29.10;18.50;;;;;;;17.19;100.00;97842.22;5054225;28;20032;-48
2023/06/30 04:05:59;;;;;;;31.45;18.48;;;;;;;17.24;100.00;97840.84;5071730;28;20507;-47
2023/06/30 04:08:25;;;;;;;35.72;19.88;;;;;;;17.25;100.00;97839.88;5017847;28;20033;-45
2023/06/30 04:10:51;;;;;;;29.85;16.92;;;;;;;17.09;100.00;97804.63;5031338;28;20420;-43
2023/06/30 04:13:17;;;;;;;23.35;15.13;;;;;;;17.17;100.00;97816.09;5020134;28;20197;-45
2023/06/30 04:15:42;;;;;;;21.27;14.93;;;;;;;17.32;100.00;97845.41;5033415;28;20122;-43
2023/06/30 04:18:08;;;;;;;21.88;14.52;;;;;;;17.35;100.00;97838.06;5017225;28;20516;-44
2023/06/30 04:20:34;;;;;;;20.85;13.73;;;;;;;17.44;100.00;97833.75;5028649;28;20538;-44
2023/06/30 04:23:00;;;;;;;22.20;14.35;;;;;;;17.57;100.00;97834.31;5070219;28;20436;-48
2023/06/30 04:25:26;;;;;;;25.13;12.52;;;;;;;17.63;100.00;97836.41;5071476;28;20101;-44
2023/06/30 04:27:51;;;;;;;20.30;12.35;;;;;;;17.63;100.00;97832.94;5070789;28;20044;-44
2023/06/30 04:30:17;;;;;;;19.88;13.13;;;;;;;17.61;100.00;97833.06;5053004;28;20052;-44
2023/06/30 04:32:43;;;;;;;20.55;13.88;;;;;;;17.61;100.00;97830.44;5038989;28;20041;-48
2023/06/30 04:35:09;;;;;;;19.35;13.73;;;;;;;17.52;100.00;97819.94;5016767;28;20639;-45
2023/06/30 04:37:40;;;;;;;20.52;14.48;;;;;;;17.53;100.00;97835.56;5053756;28;20119;-44
2023/06/30 04:40:09;;;;;;;18.83;13.45;;;;;;;17.51;100.00;97828.78;5069940;28;20110;-46
2023/06/30 04:42:38;;;;;;;17.27;12.48;;;;;;;17.47;100.00;97836.13;5053841;28;20052;-44
2023/06/30 04:45:05;;;;;;;19.85;13.30;;;;;;;17.44;100.00;97836.38;5070720;28;20048;-43
2023/06/30 04:47:32;;;;;;;18.50;12.80;;;;;;;17.38;100.00;97831.69;5053606;28;20040;-43
2023/06/30 04:49:58;;;;;;;20.52;11.73;;;;;;;17.41;100.00;97841.09;5067840;28;20033;-45
2023/06/30 04:52:24;;;;;;;15.60;12.13;;;;;;;17.38;100.00;97844.03;5053188;28;20504;-44
2023/06/30 04:54:50;;;;;;;22.70;12.50;;;;;;;17.37;100.00;97848.44;5053173;28;20032;-43
2023/06/30 04:57:16;;;;;;;22.00;12.25;;;;;;;17.38;100.00;97844.03;5052413;28;20086;-46
2023/06/30 04:59:42;;;;;;;17.38;12.68;;;;;;;17.45;100.00;97839.84;5064293;28;20547;-43
2023/06/30 05:02:08;;;;;;;20.30;12.40;;;;;;;17.56;100.00;97842.31;5071074;28;20037;-44
2023/06/30 05:04:34;;;;;;;16.42;11.55;;;;;;;17.47;100.00;97809.84;5052733;28;20040;-45
2023/06/30 05:07:00;;;;;;;19.20;11.50;;;;;;;17.82;100.00;97845.19;5066323;28;20087;-46
2023/06/30 05:09:26;;;;;;;18.83;11.38;;;;;;;17.98;100.00;97843.63;5027694;28;20459;-47
2023/06/30 05:11:52;;;;;;;16.67;11.35;;;;;;;18.14;100.00;97835.94;5070446;28;20044;-45
2023/06/30 05:14:18;;;;;;;16.30;11.43;;;;;;;18.21;100.00;97838.84;5052291;28;20621;-45
2023/06/30 05:16:44;;;;;;;14.45;11.05;;;;;;;18.23;100.00;97844.75;5036484;28;20091;-46
2023/06/30 05:19:10;;;;;;;15.55;11.02;;;;;;;18.28;100.00;97844.31;5022999;28;20036;-45
2023/06/30 05:21:35;;;;;;;19.08;11.27;;;;;;;18.29;100.00;97848.63;5042255;28;20427;-45
2023/06/30 05:24:01;;;;;;;14.02;10.90;;;;;;;18.36;100.00;97842.63;5073857;28;20094;-45
2023/06/30 05:26:27;;;;;;;16.15;11.48;;;;;;;18.47;100.00;97844.25;5082217;28;20040;-43
2023/06/30 05:28:53;;;;;;;17.02;11.23;;;;;;;18.56;100.00;97843.38;5089617;28;20572;-42
2023/06/30 05:31:18;;;;;;;19.70;12.25;;;;;;;18.55;100.00;97837.28;5090433;28;20101;-45
2023/06/30 05:33:44;;;;;;;18.73;11.35;;;;;;;18.62;100.00;97842.81;5086159;28;20464;-43
2023/06/30 05:36:10;;;;;;;16.65;11.75;;;;;;;18.60;100.00;97837.69;5061540;28;20419;-43
2023/06/30 05:38:36;;;;;;;16.92;10.90;;;;;;;18.69;100.00;97841.22;5071336;28;20052;-46
2023/06/30 05:41:02;;;;;;;17.67;11.93;;;;;;;18.81;100.00;97837.41;5090096;28;20500;-43
2023/06/30 05:43:28;;;;;;;19.92;10.55;;;;;;;18.76;100.00;97813.31;5070896;28;20036;-47
2023/06/30 05:45:54;;;;;;;23.48;11.25;;;;;;;19.03;99.51;97833.50;5086644;28;20101;-47
2023/06/30 05:48:20;;;;;;;19.00;11.38;;;;;;;19.15;98.14;97836.75;5064958;28;20056;-42
2023/06/30 05:50:46;;;;;;;20.52;11.90;;;;;;;19.17;97.72;97837.41;5076590;28;20043;-42
2023/06/30 05:53:12;;;;;;;18.48;13.05;;;;;;;19.00;97.62;97815.34;5077785;28;20041;-41
2023/06/30 05:55:38;;;;;;;21.15;12.68;;;;;;;19.08;97.46;97841.78;5071337;28;20416;-41
2023/06/30 05:58:04;;;;;;;16.30;11.82;;;;;;;18.96;97.21;97820.09;5079606;28;20048;-46
2023/06/30 06:00:30;;;;;;;17.23;12.13;;;;;;;19.07;96.96;97842.75;5066423;28;20043;-42
2023/06/30 06:02:56;;;;;;;15.57;12.02;;;;;;;19.09;97.35;97843.44;5072129;28;20043;-41
2023/06/30 06:05:22;;;;;;;22.80;13.63;;;;;;;18.93;96.62;97817.78;5075133;28;20040;-43
2023/06/30 06:07:48;;;;;;;21.17;12.82;;;;;;;18.99;97.05;97840.06;5072422;28;20063;-41
2023/06/30 06:10:14;;;;;;;21.50;13.50;;;;;;;18.93;97.16;97838.84;5078510;28;20035;-39
2023/06/30 06:12:40;;;;;;;19.55;12.95;;;;;;;18.89;97.20;97842.72;5080992;28;20039;-39
2023/06/30 06:15:07;;;;;;;19.88;12.88;;;;;;;18.85;97.55;97840.56;5084133;28;20048;-41
2023/06/30 06:17:33;;;;;;;21.60;13.00;;;;;;;18.81;97.41;97840.03;5086286;28;20074;-40
2023/06/30 06:19:59;;;;;;;22.15;15.60;;;;;;;18.78;97.92;97850.03;5078154;28;20152;-40
2023/06/30 06:22:25;;;;;;;20.88;13.32;;;;;;;18.75;97.97;97848.53;5063893;28;20056;-41
2023/06/30 06:24:51;;;;;;;21.75;13.80;;;;;;;18.71;97.91;97849.81;5061496;28;20454;-42
2023/06/30 06:27:16;;;;;;;19.85;14.27;;;;;;;18.61;97.95;97827.97;5054638;28;20048;-43
2023/06/30 06:29:42;;;;;;;17.95;12.90;;;;;;;18.78;98.28;97845.63;5040657;28;20089;-45
2023/06/30 06:32:08;;;;;;;19.75;13.40;;;;;;;18.92;97.96;97845.09;5015033;28;20119;-42
2023/06/30 06:34:35;;;;;;;18.20;13.18;;;;;;;19.17;97.64;97840.88;5038102;28;20037;-42
2023/06/30 06:37:01;;;;;;;24.92;14.65;;;;;;;19.38;95.93;97836.09;5054455;28;20135;-38
2023/06/30 06:39:27;;;;;;;18.70;11.93;;;;;;;19.53;95.20;97833.78;5055588;28;20147;-41
2023/06/30 06:41:53;;;;;;;17.65;13.23;;;;;;;19.51;94.68;97808.56;5033991;28;20045;-41
2023/06/30 06:44:21;;;;;;;22.27;13.00;;;;;;;19.61;94.32;97804.00;5016443;28;20041;-41
2023/06/30 06:46:47;;;;;;;22.33;14.57;;;;;;;19.74;94.00;97822.88;5049042;28;20432;-41
2023/06/30 06:49:12;;;;;;;20.98;14.75;;;;;;;19.75;93.80;97828.00;5051112;28;20051;-41
2023/06/30 06:51:38;;;;;;;21.35;13.02;;;;;;;19.81;93.23;97835.28;5064046;28;20037;-40
2023/06/30 06:54:04;;;;;;;21.80;13.98;;;;;;;19.92;92.67;97836.84;5062707;28;20636;-40
2023/06/30 06:56:30;;;;;;;19.58;12.80;;;;;;;20.05;91.33;97831.13;5060311;28;20094;-44
2023/06/30 06:58:56;;;;;;;20.23;12.65;;;;;;;20.08;90.84;97836.09;5048215;28;20135;-41
2023/06/30 07:01:22;;;;;;;17.33;12.00;;;;;;;19.85;90.39;97807.63;5044793;28;20047;-41
2023/06/30 07:03:48;;;;;;;19.08;12.82;;;;;;;19.80;90.45;97822.25;5021943;28;20071;-41
2023/06/30 07:06:14;;;;;;;16.65;12.40;;;;;;;19.83;90.62;97830.69;5020443;28;20476;-41
2023/06/30 07:08:39;;;;;;;19.58;11.95;;;;;;;19.82;90.60;97833.47;5056452;28;20420;-41
2023/06/30 07:11:06;;;;;;;19.75;12.70;;;;;;;19.77;90.20;97825.22;5043908;28;20401;-41
2023/06/30 07:13:33;;;;;;;20.42;13.00;;;;;;;19.84;89.93;97823.59;5020196;28;20045;-40
2023/06/30 07:15:59;;;;;;;15.93;11.65;;;;;;;19.91;89.88;97823.78;5066022;28;20044;-41
2023/06/30 07:18:25;;;;;;;15.30;12.30;;;;;;;19.98;89.29;97816.94;5054554;28;20484;-41
2023/06/30 07:20:53;;;;;;;17.05;11.77;;;;;;;20.12;88.08;97826.88;5044984;28;20150;-41
2023/06/30 07:23:20;;;;;;;14.50;10.73;;;;;;;20.16;87.48;97828.22;5083196;28;20084;-40
2023/06/30 07:25:47;;;;;;;12.13;10.45;;;;;;;20.24;87.63;97821.19;5087894;28;20494;-47
2023/06/30 07:28:13;;;;;;;15.90;11.25;;;;;;;20.33;86.74;97827.34;5087328;28;20079;-39
2023/06/30 07:30:40;;;;;;;14.18;11.80;;;;;;;20.30;86.46;97825.00;5062058;28;20064;-40
2023/06/30 07:33:06;;;;;;;16.13;10.63;;;;;;;20.17;86.26;97801.69;5076432;28;20119;-39
2023/06/30 07:35:32;;;;;;;13.85;10.48;;;;;;;20.37;85.65;97785.59;5084949;28;20446;-38
2023/06/30 07:37:58;;;;;;;14.70;11.73;;;;;;;20.85;84.52;97816.59;5084314;28;20060;-39
2023/06/30 07:40:24;;;;;;;20.20;10.07;;;;;;;21.12;84.22;97814.47;5068508;28;20147;-40
2023/06/30 07:42:53;;;;;;;15.10;10.02;;;;;;;21.31;82.72;97823.91;5087025;28;20051;-40
2023/06/30 07:45:19;;;;;;;15.13;10.93;;;;;;;21.38;82.48;97810.88;5060039;28;20036;-40
2023/06/30 07:47:47;;;;;;;15.45;11.27;;;;;;;21.46;81.83;97818.78;5080730;28;20047;-40
2023/06/30 07:50:15;;;;;;;14.35;11.10;;;;;;;21.67;81.11;97807.72;5075797;28;20121;-40
2023/06/30 07:52:46;;;;;;;12.40;10.20;;;;;;;22.22;79.62;97815.69;5075905;28;20524;-40
2023/06/30 07:55:12;;;;;;;13.45;10.15;;;;;;;22.46;77.91;97815.56;5075642;28;20127;-39
2023/06/30 07:57:39;;;;;;;12.98;8.65;;;;;;;22.35;77.13;97813.28;5078264;28;20530;-40
2023/06/30 08:00:06;;;;;;;11.90;9.98;;;;;;;22.15;77.31;97812.06;5071730;28;20102;-42
2023/06/30 08:02:38;;;;;;;13.82;9.32;;;;;;;21.96;76.41;97792.94;5086383;28;20106;-42
2023/06/30 08:05:05;;;;;;;13.68;9.15;;;;;;;22.12;76.30;97809.75;5077942;28;20036;-39
2023/06/30 08:07:31;;;;;;;11.82;10.18;;;;;;;22.07;75.74;97807.63;5073209;28;20528;-39
2023/06/30 08:09:57;;;;;;;15.65;10.88;;;;;;;21.98;75.07;97777.72;5067901;28;20049;-39
2023/06/30 08:12:22;;;;;;;13.88;9.55;;;;;;;22.57;74.07;97799.28;5075821;28;20059;-41
2023/06/30 08:14:48;;;;;;;13.90;10.77;;;;;;;22.99;72.84;97811.31;5074874;28;20130;-40
2023/06/30 08:17:15;;;;;;;17.73;9.63;;;;;;;23.28;71.83;97807.97;5081415;28;20036;-41
2023/06/30 08:19:42;;;;;;;12.45;8.90;;;;;;;23.41;70.60;97803.69;5077818;28;20046;-43
2023/06/30 08:22:15;;;;;;;13.98;10.77;;;;;;;23.48;68.17;97758.75;5061159;28;20052;-39
2023/06/30 08:24:45;;;;;;;9.68;8.65;;;;;;;23.85;64.86;97795.00;5077148;28;20040;-40
2023/06/30 08:27:11;;;;;;;10.52;8.10;;;;;;;24.03;65.29;97792.81;5083371;28;20431;-39
2023/06/30 08:29:37;;;;;;;11.07;8.73;;;;;;;23.97;64.99;97783.72;5072307;28;20033;-40
2023/06/30 08:32:04;;;;;;;11.95;7.65;;;;;;;24.08;65.08;97791.25;5075767;28;20177;-40
2023/06/30 08:34:30;;;;;;;9.43;7.25;;;;;;;24.32;63.28;97790.16;5082366;28;20040;-42
2023/06/30 08:36:56;;;;;;;7.93;6.45;;;;;;;24.75;61.52;97784.94;5074541;28;20093;-41
2023/06/30 08:39:23;;;;;;;11.48;7.07;;;;;;;24.81;59.74;97781.50;5076866;28;20060;-40
2023/06/30 08:41:50;;;;;;;13.77;8.07;;;;;;;24.49;59.74;97777.50;5075876;28;20044;-40
2023/06/30 08:44:18;;;;;;;8.75;6.53;;;;;;;24.25;59.67;97775.16;5074635;28;20240;-39
2023/06/30 08:46:44;;;;;;;8.05;7.22;;;;;;;24.32;58.85;97776.06;5066711;28;20119;-39
2023/06/30 08:49:12;;;;;;;9.68;7.45;;;;;;;24.33;57.88;97781.19;5061160;28;20127;-39
2023/06/30 08:51:39;;;;;;;9.20;7.55;;;;;;;24.03;57.57;97758.28;5081517;28;20067;-39
2023/06/30 08:54:05;;;;;;;11.18;7.18;;;;;;;23.82;57.75;97769.63;5079264;28;20044;-40
2023/06/30 08:56:33;;;;;;;11.50;7.13;;;;;;;23.62;57.81;97773.84;5079064;28;20062;-40
2023/06/30 08:58:59;;;;;;;12.30;6.47;;;;;;;23.36;58.08;97768.94;5062735;28;20064;-40
2023/06/30 09:01:25;;;;;;;11.27;7.25;;;;;;;23.01;58.31;97772.22;5075716;28;20044;-39
2023/06/30 09:03:51;;;;;;;9.18;7.00;;;;;;;22.65;59.08;97762.16;5078784;28;20036;-40
2023/06/30 09:06:17;;;;;;;11.63;7.60;;;;;;;22.83;59.20;97764.53;5083710;28;20035;-39
2023/06/30 09:09:09;;;;;;;10.80;7.85;;;;;;;22.75;59.25;97759.31;5063330;28;20048;-42
2023/06/30 09:11:36;;;;;;;13.60;8.23;;;;;;;22.46;60.35;97759.13;5060018;28;20461;-39
2023/06/30 09:14:03;;;;;;;11.30;8.32;;;;;;;22.16;61.03;97766.91;5070899;28;20071;-39
2023/06/30 09:16:33;;;;;;;11.65;9.32;;;;;;;21.88;61.46;97763.81;5064024;28;20041;-40
2023/06/30 09:18:59;;;;;;;9.77;8.43;;;;;;;21.50;61.59;97746.91;5088684;28;20917;-40
2023/06/30 09:21:25;;;;;;;14.38;9.25;;;;;;;21.46;61.86;97769.38;5085481;28;20057;-40
2023/06/30 09:23:51;;;;;;;12.80;9.63;;;;;;;21.16;62.11;97742.81;5050602;28;20064;-40
2023/06/30 09:26:17;;;;;;;13.93;9.60;;;;;;;21.08;63.13;97776.16;5070364;28;20067;-40
2023/06/30 09:28:45;;;;;;;13.32;9.27;;;;;;;20.73;64.45;97758.78;5070380;28;20528;-42
2023/06/30 09:31:11;;;;;;;9.80;8.77;;;;;;;20.70;65.81;97777.63;5052704;28;20078;-41
2023/06/30 09:33:42;;;;;;;14.57;10.20;;;;;;;20.59;67.49;97783.19;5050228;28;20127;-40
2023/06/30 09:36:08;;;;;;;17.17;10.35;;;;;;;20.42;69.48;97775.38;5052041;28;20081;-40
2023/06/30 09:38:35;;;;;;;17.15;9.55;;;;;;;20.24;70.86;97778.97;5042147;28;20139;-39
2023/06/30 09:41:04;;;;;;;12.32;9.18;;;;;;;19.93;72.01;97735.63;5036460;28;20053;-39
2023/06/30 09:43:29;;;;;;;13.57;8.35;;;;;;;20.05;72.23;97778.34;5059040;28;20090;-39
2023/06/30 09:46:04;;;;;;;12.68;9.55;;;;;;;20.04;72.67;97779.38;5054544;28;20277;-40
2023/06/30 09:48:39;;;;;;;14.77;9.52;;;;;;;20.00;72.99;97780.66;5055673;28;20457;-39
2023/06/30 09:51:07;;;;;;;12.27;10.25;;;;;;;19.92;73.62;97783.25;5042511;28;20090;-40
2023/06/30 09:53:37;;;;;;;18.75;11.23;;;;;;;19.61;75.16;97770.56;5039402;28;20060;-39
2023/06/30 09:56:03;;;;;;;29.88;19.83;;;;;;;19.49;78.10;97792.06;5057347;28;20043;-45
2023/06/30 09:58:30;;;;;;;22.42;14.07;;;;;;;19.26;80.49;97784.63;5035351;28;20075;-43
2023/06/30 10:00:57;;;;;;;32.10;17.67;;;;;;;19.11;82.85;97786.16;5028230;28;20044;-44
2023/06/30 10:03:22;;;;;;;27.20;14.40;;;;;;;19.01;85.13;97790.69;5033707;28;20036;-43
2023/06/30 10:05:49;;;;;;;20.42;13.13;;;;;;;18.95;86.54;97786.00;5051643;28;20083;-46
2023/06/30 10:08:15;;;;;;;14.88;12.70;;;;;;;18.89;87.44;97797.16;5051606;28;20139;-43
2023/06/30 10:10:42;;;;;;;21.40;15.30;;;;;;;18.82;88.59;97785.56;5051520;28;20040;-41
2023/06/30 10:13:09;;;;;;;19.33;14.50;;;;;;;18.75;89.67;97790.59;5068869;28;20040;-45
2023/06/30 10:15:35;;;;;;;17.08;13.13;;;;;;;18.36;90.92;97761.09;5018075;28;20037;-43
2023/06/30 10:18:02;;;;;;;19.30;13.57;;;;;;;18.43;91.82;97806.03;5068451;28;20547;-43
2023/06/30 10:20:29;;;;;;;22.80;14.02;;;;;;;18.29;92.49;97801.25;5063311;28;20405;-44
2023/06/30 10:22:55;;;;;;;16.33;12.88;;;;;;;18.14;93.07;97803.56;5054292;28;20052;-43
2023/06/30 10:25:23;;;;;;;20.17;15.18;;;;;;;17.99;93.95;97800.59;5078799;28;20036;-45
2023/06/30 10:27:49;;;;;;;22.10;15.07;;;;;;;17.90;94.91;97793.53;5071347;28;20135;-45
2023/06/30 10:30:15;;;;;;;23.27;15.77;;;;;;;17.86;96.00;97789.56;5088993;28;20066;-43
2023/06/30 10:32:41;;;;;;;21.15;15.65;;;;;;;17.66;97.26;97778.28;5088547;28;20039;-42
2023/06/30 10:35:09;;;;;;;22.95;15.40;;;;;;;17.74;98.70;97788.09;5084490;28;20046;-41
2023/06/30 10:37:35;;;;;;;14.95;11.23;;;;;;;17.64;99.63;97788.09;5061653;28;20113;-42
2023/06/30 10:40:06;;;;;;;20.55;16.00;;;;;;;17.54;99.97;97786.44;5048713;28;20044;-41
2023/06/30 10:42:40;;;;;;;12.32;9.10;;;;;;;17.24;100.00;97751.53;5074330;28;20044;-42
2023/06/30 10:45:07;;;;;;;14.30;9.75;;;;;;;17.36;100.00;97775.84;5077792;28;20389;-43
2023/06/30 10:47:38;;;;;;;13.77;10.40;;;;;;;17.41;100.00;97776.25;5076793;28;20432;-41
2023/06/30 10:50:13;;;;;;;13.60;9.98;;;;;;;17.45;100.00;97787.31;5074283;28;20037;-40
2023/06/30 10:52:48;;;;;;;12.93;10.45;;;;;;;17.46;100.00;97779.28;5086050;28;20044;-41
2023/06/30 10:55:13;;;;;;;13.48;11.23;;;;;;;17.20;100.00;97721.28;5076633;28;20151;-42
2023/06/30 10:57:39;;;;;;;11.80;10.05;;;;;;;17.54;100.00;97762.78;5063874;28;20315;-44
2023/06/30 11:00:06;;;;;;;13.38;10.77;;;;;;;17.61;100.00;97756.88;5069658;28;20044;-40
2023/06/30 11:02:34;;;;;;;12.83;10.13;;;;;;;17.71;100.00;97762.09;5062748;28;20427;-41
2023/06/30 11:05:19;;;;;;;20.35;13.60;;;;;;;17.88;100.00;97750.81;5078329;28;20348;-42
2023/06/30 11:07:52;;;;;;;13.35;10.30;;;;;;;18.02;100.00;97752.97;5081596;28;20554;-41
2023/06/30 11:10:28;;;;;;;14.23;11.23;;;;;;;18.21;100.00;97762.56;5079199;28;20051;-43
2023/06/30 11:12:57;;;;;;;13.43;10.25;;;;;;;18.36;100.00;97753.19;5054497;28;20036;-41